NO-0021 weather

Public forecast

Using degrees Celsius for public forecast. Weather courtesy of forecast.io.

Closest aviation weather report (METAR) to Atna

Closest report is Røros Airport, 53.1 nm (98.3 km) NNE. Retrieved 2020/08/11 00:20 UTC (20 minutes ago):

ENRO 110020Z AUTO 31002KT 0450NDV R13/P2000D R31/P2000U FG NCD 05/05 Q1026

Closest aviation forecast (TAF) to Atna

Closest forecast is Oslo Gardermoen Airport, 92.3 nm (170.9 km) S. Retrieved 2020-08-11 00:57 UTC (0 seconds ago):

TAF ENGM 102300Z 1100/1124 36005KT CAVOK BECMG 1109/1111 18010KT BECMG 1119/1121 VRB03KT